createdAt,value
2023-04-19T00:01:49.859Z,11.33
2023-04-19T00:04:16.894Z,11.29
2023-04-19T00:06:43.605Z,11.38
2023-04-19T00:09:10.013Z,11.30
2023-04-19T00:11:36.472Z,11.38
2023-04-19T00:14:03.050Z,11.39
2023-04-19T00:16:29.532Z,11.28
2023-04-19T00:18:55.973Z,11.41
2023-04-19T00:21:22.359Z,11.37
2023-04-19T00:23:48.751Z,11.37
2023-04-19T00:26:17.967Z,11.34
2023-04-19T00:28:44.343Z,11.39
2023-04-19T00:31:10.940Z,11.44
2023-04-19T00:33:37.340Z,11.49
2023-04-19T00:36:03.875Z,11.31
2023-04-19T00:38:30.456Z,11.42
2023-04-19T00:40:56.831Z,11.27
2023-04-19T00:43:23.223Z,11.21
2023-04-19T00:45:49.804Z,11.30
2023-04-19T00:48:16.326Z,11.47
2023-04-19T00:50:43.822Z,11.13
2023-04-19T00:53:10.694Z,11.16
2023-04-19T00:55:39.284Z,10.91
2023-04-19T00:58:07.332Z,11.32
2023-04-19T01:00:33.750Z,11.34
2023-04-19T01:03:00.403Z,11.48
2023-04-19T01:05:27.269Z,11.57
2023-04-19T01:07:53.659Z,11.47
2023-04-19T01:10:20.076Z,11.42
2023-04-19T01:12:46.445Z,11.58
2023-04-19T01:15:12.893Z,11.31
2023-04-19T01:17:39.507Z,11.40
2023-04-19T01:20:07.909Z,11.56
2023-04-19T01:22:37.596Z,11.36
2023-04-19T01:25:04.855Z,11.20
2023-04-19T01:27:31.287Z,11.10
2023-04-19T01:29:57.717Z,11.34
2023-04-19T01:32:26.235Z,11.57
2023-04-19T01:34:53.049Z,11.63
2023-04-19T01:37:19.517Z,11.41
2023-04-19T01:39:46.007Z,11.35
2023-04-19T01:42:12.470Z,11.28
2023-04-19T01:44:38.878Z,11.29
2023-04-19T01:47:05.667Z,11.52
2023-04-19T01:49:32.175Z,11.61
2023-04-19T01:51:58.569Z,11.45
2023-04-19T01:54:25.234Z,11.21
2023-04-19T01:56:51.656Z,11.18
2023-04-19T01:59:18.040Z,11.24
2023-04-19T02:01:44.447Z,11.28
2023-04-19T02:04:10.901Z,11.01
2023-04-19T02:06:37.450Z,11.16
2023-04-19T02:09:03.892Z,10.85
2023-04-19T02:11:30.297Z,11.16
2023-04-19T02:13:56.660Z,11.10
2023-04-19T02:16:23.074Z,11.32
2023-04-19T02:18:49.537Z,11.10
2023-04-19T02:21:15.990Z,11.11
2023-04-19T02:23:42.377Z,11.01
2023-04-19T02:26:08.806Z,11.21
2023-04-19T02:28:35.273Z,11.15
2023-04-19T02:31:05.659Z,11.08
2023-04-19T02:33:32.031Z,10.89
2023-04-19T02:35:58.415Z,11.13
2023-04-19T02:38:24.829Z,11.09
2023-04-19T02:40:51.219Z,11.03
2023-04-19T02:43:17.604Z,10.99
2023-04-19T02:45:44.177Z,10.81
2023-04-19T02:48:10.644Z,10.89
2023-04-19T02:50:38.519Z,10.88
2023-04-19T02:53:04.917Z,10.79
2023-04-19T02:55:31.287Z,10.76
2023-04-19T02:57:57.684Z,10.73
2023-04-19T03:00:24.115Z,10.66
2023-04-19T03:02:50.638Z,10.66
2023-04-19T03:05:17.079Z,10.55
2023-04-19T03:07:44.716Z,10.64
2023-04-19T03:10:11.255Z,10.73
2023-04-19T03:12:37.687Z,10.74
2023-04-19T03:15:04.448Z,10.83
2023-04-19T03:17:30.923Z,10.63
2023-04-19T03:19:57.435Z,10.19
2023-04-19T03:22:23.819Z,10.28
2023-04-19T03:24:50.415Z,10.21
2023-04-19T03:27:16.803Z,10.21
2023-04-19T03:29:43.241Z,9.97
2023-04-19T03:32:09.616Z,10.08
2023-04-19T03:34:36.008Z,9.96
2023-04-19T03:37:02.398Z,9.88
2023-04-19T03:39:28.771Z,10.16
2023-04-19T03:41:55.176Z,9.99
2023-04-19T03:44:21.614Z,9.99
2023-04-19T03:46:48.729Z,10.18
2023-04-19T03:49:15.185Z,10.04
2023-04-19T03:51:41.619Z,9.71
2023-04-19T03:54:08.071Z,9.62
2023-04-19T03:56:34.506Z,9.43
2023-04-19T03:59:00.936Z,9.61
2023-04-19T04:01:27.951Z,9.66
2023-04-19T04:03:54.598Z,9.43
2023-04-19T04:06:21.144Z,9.45
2023-04-19T04:08:47.771Z,9.54
2023-04-19T04:11:14.357Z,9.46
2023-04-19T04:13:40.773Z,9.48
2023-04-19T04:16:07.244Z,9.38
2023-04-19T04:18:33.657Z,9.52
2023-04-19T04:21:00.659Z,9.49
2023-04-19T04:23:28.247Z,9.41
2023-04-19T04:26:01.490Z,9.31
2023-04-19T04:28:28.575Z,9.16
2023-04-19T04:30:57.296Z,9.26
2023-04-19T04:33:28.131Z,9.08
2023-04-19T04:35:56.287Z,9.15
2023-04-19T04:38:24.917Z,8.91
2023-04-19T04:40:56.843Z,9.14
2023-04-19T04:43:25.574Z,9.13
2023-04-19T04:45:52.085Z,9.11
2023-04-19T04:48:18.637Z,9.04
2023-04-19T04:50:45.203Z,8.71
2023-04-19T04:53:13.097Z,8.67
2023-04-19T04:55:39.707Z,8.60
2023-04-19T04:58:06.254Z,8.67
2023-04-19T05:00:33.666Z,8.53
2023-04-19T05:03:00.344Z,8.49
2023-04-19T05:05:26.857Z,8.67
2023-04-19T05:07:53.235Z,8.35
2023-04-19T05:10:19.637Z,8.50
2023-04-19T05:12:46.023Z,8.46
2023-04-19T05:15:12.423Z,8.42
2023-04-19T05:17:38.836Z,8.33
2023-04-19T05:20:05.954Z,8.64
2023-04-19T05:22:32.337Z,8.44
2023-04-19T05:24:58.688Z,8.54
2023-04-19T05:27:25.040Z,8.70
2023-04-19T05:29:51.933Z,8.44
2023-04-19T05:32:18.347Z,8.61
2023-04-19T05:34:44.736Z,8.79
2023-04-19T05:37:11.213Z,8.79
2023-04-19T05:39:37.652Z,8.40
2023-04-19T05:42:04.163Z,8.43
2023-04-19T05:44:30.598Z,8.73
2023-04-19T05:46:56.998Z,8.60
2023-04-19T05:49:23.748Z,8.59
2023-04-19T05:51:50.179Z,8.49
2023-04-19T05:54:17.407Z,8.66
2023-04-19T05:56:43.929Z,8.56
2023-04-19T05:59:11.487Z,8.58
2023-04-19T06:01:38.096Z,8.26
2023-04-19T06:04:04.804Z,8.02
2023-04-19T06:06:31.471Z,8.31
2023-04-19T06:08:57.879Z,8.26
2023-04-19T06:11:29.257Z,8.25
2023-04-19T06:14:05.916Z,8.34
2023-04-19T06:16:32.401Z,8.23
2023-04-19T06:18:58.833Z,8.29
2023-04-19T06:21:25.239Z,8.30
2023-04-19T06:23:51.720Z,8.57
2023-04-19T06:26:18.134Z,8.41
2023-04-19T06:28:44.506Z,8.54
2023-04-19T06:31:12.166Z,8.27
2023-04-19T06:33:38.706Z,8.33
2023-04-19T06:36:05.870Z,8.65
2023-04-19T06:38:32.436Z,8.63
2023-04-19T06:40:58.813Z,8.56
2023-04-19T06:43:25.686Z,8.63
2023-04-19T06:46:10.082Z,8.69
2023-04-19T06:48:36.634Z,8.75
2023-04-19T06:51:03.127Z,8.63
2023-04-19T06:53:29.597Z,8.79
2023-04-19T06:56:01.056Z,8.66
2023-04-19T06:58:28.342Z,8.78
2023-04-19T07:00:54.771Z,8.63
2023-04-19T07:03:21.749Z,8.91
2023-04-19T07:05:48.700Z,8.66
2023-04-19T07:08:16.121Z,8.87
2023-04-19T07:10:43.720Z,8.73
2023-04-19T07:13:13.248Z,8.95
2023-04-19T07:15:39.817Z,8.77
2023-04-19T07:18:06.525Z,8.52
2023-04-19T07:20:33.508Z,8.58
2023-04-19T07:23:00.187Z,8.61
2023-04-19T07:25:27.410Z,8.70
2023-04-19T07:27:54.702Z,8.59
2023-04-19T07:30:21.190Z,8.89
2023-04-19T07:32:47.830Z,8.93
2023-04-19T07:35:14.339Z,9.22
2023-04-19T07:37:40.749Z,8.94
2023-04-19T07:40:07.658Z,8.89
2023-04-19T07:42:34.053Z,8.67
2023-04-19T07:45:00.466Z,8.84
2023-04-19T07:47:26.949Z,8.73
2023-04-19T07:49:53.670Z,8.90
2023-04-19T07:52:20.179Z,9.11
2023-04-19T07:54:47.055Z,9.44
2023-04-19T07:57:13.477Z,9.35
2023-04-19T07:59:39.859Z,9.72
2023-04-19T08:02:07.530Z,9.90
2023-04-19T08:04:34.171Z,9.87
2023-04-19T08:07:00.951Z,9.62
2023-04-19T08:09:27.485Z,9.40
2023-04-19T08:11:53.939Z,9.65
2023-04-19T08:14:34.654Z,9.95
2023-04-19T08:17:23.333Z,9.85
2023-04-19T08:19:52.427Z,10.13
2023-04-19T08:22:19.650Z,10.00
2023-04-19T08:24:46.054Z,9.93
2023-04-19T08:27:12.484Z,9.60
2023-04-19T08:29:38.874Z,9.58
2023-04-19T08:32:06.113Z,9.85
2023-04-19T08:34:35.934Z,9.68
2023-04-19T08:37:04.424Z,10.05
2023-04-19T08:39:35.044Z,10.08
2023-04-19T08:42:12.640Z,9.95
2023-04-19T08:45:06.343Z,10.12
2023-04-19T08:47:48.527Z,10.28
2023-04-19T08:50:32.533Z,10.50
2023-04-19T08:53:12.306Z,10.74
2023-04-19T08:56:07.835Z,10.44
2023-04-19T08:58:52.115Z,10.67
2023-04-19T09:01:33.955Z,10.94
2023-04-19T09:04:17.272Z,10.11
2023-04-19T09:06:49.261Z,10.13
2023-04-19T09:09:34.055Z,10.15
2023-04-19T09:12:03.416Z,10.53
2023-04-19T09:14:29.853Z,10.75
2023-04-19T09:17:17.903Z,10.43
2023-04-19T09:19:50.529Z,11.08
2023-04-19T09:22:17.262Z,11.26
2023-04-19T09:27:13.916Z,11.15
2023-04-19T09:29:40.383Z,11.59
2023-04-19T09:32:06.808Z,11.56
2023-04-19T09:34:33.259Z,11.32
2023-04-19T09:37:17.732Z,11.12
2023-04-19T09:39:54.744Z,11.62
2023-04-19T09:42:42.316Z,12.13
2023-04-19T09:47:38.013Z,11.95
2023-04-19T09:50:22.861Z,12.04
2023-04-19T09:52:51.355Z,12.10
2023-04-19T09:55:26.780Z,12.61
2023-04-19T09:57:55.281Z,12.18
2023-04-19T10:00:22.813Z,12.80
2023-04-19T10:02:57.492Z,12.89
2023-04-19T10:05:24.859Z,13.28
2023-04-19T10:07:53.268Z,13.09
2023-04-19T10:10:27.551Z,12.62
2023-04-19T10:15:53.630Z,13.46
2023-04-19T10:18:22.049Z,13.73
2023-04-19T10:21:00.085Z,13.49
2023-04-19T10:23:26.729Z,13.54
2023-04-19T10:25:57.739Z,13.74
2023-04-19T10:28:24.427Z,12.96
2023-04-19T10:30:58.458Z,13.24
2023-04-19T10:33:27.092Z,13.88
2023-04-19T10:35:56.569Z,14.07
2023-04-19T10:38:47.052Z,13.32
2023-04-19T10:41:18.723Z,13.43
2023-04-19T10:43:47.333Z,13.11
2023-04-19T10:46:36.726Z,12.69
2023-04-19T10:49:05.025Z,13.00
2023-04-19T10:51:39.717Z,12.94
2023-04-19T10:54:10.513Z,13.52
2023-04-19T10:56:37.360Z,13.12
2023-04-19T10:59:13.165Z,13.47
2023-04-19T11:01:54.558Z,13.20
2023-04-19T11:04:30.381Z,14.17
2023-04-19T11:06:57.137Z,13.20
2023-04-19T11:09:41.956Z,13.73
2023-04-19T11:12:12.015Z,13.33
2023-04-19T11:14:46.786Z,13.26
2023-04-19T11:17:18.067Z,13.47
2023-04-19T11:19:57.439Z,14.24
2023-04-19T11:22:32.011Z,13.72
2023-04-19T11:25:12.328Z,13.74
2023-04-19T11:27:40.468Z,13.71
2023-04-19T11:30:13.969Z,14.31
2023-04-19T11:32:48.297Z,14.22
2023-04-19T11:35:15.550Z,13.71
2023-04-19T11:37:41.989Z,14.34
2023-04-19T11:40:09.197Z,14.12
2023-04-19T11:42:36.089Z,14.47
2023-04-19T11:45:02.896Z,14.95
2023-04-19T11:47:29.455Z,14.44
2023-04-19T11:49:58.745Z,14.76
2023-04-19T11:52:26.042Z,14.12
2023-04-19T11:54:53.046Z,14.37
2023-04-19T11:57:29.906Z,14.53
2023-04-19T12:00:05.492Z,14.89
2023-04-19T12:02:32.061Z,15.21
2023-04-19T12:05:08.322Z,16.19
2023-04-19T12:07:34.914Z,16.22
2023-04-19T12:10:10.253Z,17.06
2023-04-19T12:12:37.381Z,17.72
2023-04-19T12:15:05.197Z,18.05
2023-04-19T12:17:32.005Z,18.27
2023-04-19T12:19:58.379Z,19.12
2023-04-19T12:22:24.758Z,17.44
2023-04-19T12:24:52.104Z,16.95
2023-04-19T12:27:18.530Z,16.20
2023-04-19T12:29:45.968Z,17.11
2023-04-19T12:32:13.092Z,17.82
2023-04-19T12:34:39.542Z,17.49
2023-04-19T12:37:05.918Z,16.85
2023-04-19T12:39:32.302Z,16.28
2023-04-19T12:41:58.825Z,17.21
2023-04-19T12:44:25.248Z,18.13
2023-04-19T12:46:52.001Z,17.27
2023-04-19T12:49:19.959Z,16.63
2023-04-19T12:51:47.492Z,16.56
2023-04-19T12:54:15.221Z,18.12
2023-04-19T12:56:41.666Z,17.92
2023-04-19T12:59:08.060Z,16.87
2023-04-19T13:01:34.484Z,17.11
2023-04-19T13:04:01.252Z,17.31
2023-04-19T13:06:27.948Z,17.48
2023-04-19T13:08:54.966Z,18.04
2023-04-19T13:11:23.379Z,17.33
2023-04-19T13:13:51.425Z,17.96
2023-04-19T13:16:17.832Z,18.30
2023-04-19T13:18:44.267Z,18.46
2023-04-19T13:21:10.649Z,18.16
2023-04-19T13:23:37.069Z,19.32
2023-04-19T13:26:03.608Z,19.37
2023-04-19T13:28:30.960Z,18.97
2023-04-19T13:30:57.459Z,17.87
2023-04-19T13:33:23.898Z,17.82
2023-04-19T13:35:50.298Z,17.34
2023-04-19T13:38:16.675Z,18.34
2023-04-19T13:40:44.657Z,18.37
2023-04-19T13:43:11.026Z,17.13
2023-04-19T13:45:37.386Z,17.91
2023-04-19T13:48:03.932Z,17.52
2023-04-19T13:50:30.410Z,17.88
2023-04-19T13:52:56.794Z,19.50
2023-04-19T13:55:23.228Z,20.97
2023-04-19T13:57:50.981Z,19.42
2023-04-19T14:00:18.054Z,18.03
2023-04-19T14:02:45.384Z,17.31
2023-04-19T14:05:12.008Z,17.45
2023-04-19T14:07:41.471Z,19.04
2023-04-19T14:10:09.267Z,18.01
2023-04-19T14:12:35.693Z,19.77
2023-04-19T14:15:02.196Z,18.11
2023-04-19T14:17:28.695Z,18.27
2023-04-19T14:19:56.425Z,18.77
2023-04-19T14:22:22.807Z,18.91
2023-04-19T14:24:49.201Z,18.99
2023-04-19T14:27:15.631Z,18.45
2023-04-19T14:29:41.991Z,18.78
2023-04-19T14:32:24.494Z,19.83
2023-04-19T14:34:52.462Z,19.54
2023-04-19T14:37:21.133Z,19.61
2023-04-19T14:39:47.577Z,19.28
2023-04-19T14:42:13.979Z,19.97
2023-04-19T14:44:40.880Z,19.74
2023-04-19T14:47:07.524Z,19.08
2023-04-19T14:49:33.926Z,19.78
2023-04-19T14:52:00.344Z,19.84
2023-04-19T14:54:26.742Z,18.70
2023-04-19T14:56:53.633Z,19.09
2023-04-19T14:59:20.300Z,18.98
2023-04-19T15:01:46.739Z,20.17
2023-04-19T15:04:13.441Z,22.11
2023-04-19T15:06:40.783Z,21.36
2023-04-19T15:09:07.475Z,19.23
2023-04-19T15:11:33.866Z,17.91
2023-04-19T15:14:00.358Z,18.70
2023-04-19T15:16:26.834Z,19.05
2023-04-19T15:18:53.237Z,19.17
2023-04-19T15:21:22.923Z,18.65
2023-04-19T15:23:50.692Z,19.75
2023-04-19T15:26:17.070Z,20.16
2023-04-19T15:28:43.451Z,19.37
2023-04-19T15:31:10.339Z,18.37
2023-04-19T15:33:37.498Z,17.06
2023-04-19T15:36:04.134Z,17.99
2023-04-19T15:38:31.272Z,17.92
2023-04-19T15:40:58.766Z,18.86
2023-04-19T15:43:25.470Z,17.79
2023-04-19T15:45:52.023Z,18.33
2023-04-19T15:48:18.640Z,18.14
2023-04-19T15:50:45.026Z,18.88
2023-04-19T15:53:11.506Z,18.92
2023-04-19T15:55:39.915Z,18.61
2023-04-19T15:58:06.305Z,18.26
2023-04-19T16:00:32.740Z,19.15
2023-04-19T16:02:59.229Z,19.50
2023-04-19T16:05:26.950Z,19.58
2023-04-19T16:08:09.509Z,18.95
2023-04-19T16:10:36.190Z,18.16
2023-04-19T16:13:05.832Z,17.57
2023-04-19T16:15:32.585Z,17.51
2023-04-19T16:17:59.072Z,18.27
2023-04-19T16:20:25.528Z,19.07
2023-04-19T16:22:51.964Z,19.69
2023-04-19T16:25:18.398Z,18.61
2023-04-19T16:27:46.264Z,20.02
2023-04-19T16:30:13.467Z,19.53
2023-04-19T16:32:41.141Z,18.87
2023-04-19T16:35:08.190Z,17.86
2023-04-19T16:37:35.165Z,18.67
2023-04-19T16:40:07.940Z,17.68
2023-04-19T16:42:35.347Z,17.93
2023-04-19T16:45:01.935Z,18.48
2023-04-19T16:47:30.101Z,18.10
2023-04-19T16:49:57.570Z,18.48
2023-04-19T16:52:28.924Z,17.75
2023-04-19T16:54:55.339Z,18.75
2023-04-19T16:57:23.058Z,18.74
2023-04-19T16:59:49.735Z,17.04
2023-04-19T17:02:16.517Z,16.57
2023-04-19T17:04:43.433Z,17.13
2023-04-19T17:07:10.065Z,16.73
2023-04-19T17:09:36.444Z,16.05
2023-04-19T17:12:03.107Z,15.46
2023-04-19T17:14:29.794Z,15.18
2023-04-19T17:16:56.206Z,14.76
2023-04-19T17:19:22.653Z,14.80
2023-04-19T17:21:49.029Z,14.85
2023-04-19T17:24:15.394Z,14.60
2023-04-19T17:26:41.758Z,14.45
2023-04-19T17:29:08.690Z,13.88
2023-04-19T17:31:35.171Z,13.87
2023-04-19T17:34:01.613Z,13.62
2023-04-19T17:36:28.598Z,13.92
2023-04-19T17:38:55.021Z,13.78
2023-04-19T17:41:21.444Z,13.96
2023-04-19T17:43:47.845Z,13.95
2023-04-19T17:46:14.954Z,13.50
2023-04-19T17:48:41.799Z,13.52
2023-04-19T17:51:08.220Z,13.36
2023-04-19T17:53:34.586Z,12.90
2023-04-19T17:56:00.968Z,13.27
2023-04-19T17:58:27.344Z,13.07
2023-04-19T18:00:53.882Z,13.25
2023-04-19T18:03:20.671Z,13.30
2023-04-19T18:05:47.235Z,12.86
2023-04-19T18:08:13.711Z,13.00
2023-04-19T18:10:40.207Z,12.64
2023-04-19T18:13:06.568Z,12.73
2023-04-19T18:15:33.010Z,12.46
2023-04-19T18:17:59.503Z,12.49
2023-04-19T18:20:26.093Z,12.52
2023-04-19T18:22:53.621Z,12.40
2023-04-19T18:25:20.130Z,12.17
2023-04-19T18:27:46.516Z,12.25
2023-04-19T18:30:13.049Z,12.33
2023-04-19T18:32:39.472Z,12.22
2023-04-19T18:35:08.855Z,12.21
2023-04-19T18:37:35.646Z,11.83
2023-04-19T18:40:02.401Z,11.90
2023-04-19T18:42:28.818Z,11.51
2023-04-19T18:44:55.306Z,11.58
2023-04-19T18:47:22.394Z,11.61
2023-04-19T18:50:02.797Z,11.51
2023-04-19T18:52:30.647Z,11.74
2023-04-19T18:54:58.224Z,11.67
2023-04-19T18:57:27.452Z,11.54
2023-04-19T18:59:55.800Z,11.46
2023-04-19T19:02:22.201Z,11.37
2023-04-19T19:04:56.755Z,11.33
2023-04-19T19:07:35.534Z,11.40
2023-04-19T19:10:16.740Z,11.18
2023-04-19T19:12:45.566Z,11.32
2023-04-19T19:15:12.287Z,11.25
2023-04-19T19:17:38.807Z,11.09
2023-04-19T19:20:06.673Z,10.92
2023-04-19T19:22:34.025Z,10.84
2023-04-19T19:25:00.826Z,10.64
2023-04-19T19:27:27.290Z,10.70
2023-04-19T19:29:53.682Z,10.60
2023-04-19T19:32:20.551Z,10.58
2023-04-19T19:34:55.763Z,10.76
2023-04-19T19:37:27.334Z,10.75
2023-04-19T19:39:56.272Z,10.60
2023-04-19T19:42:23.408Z,10.67
2023-04-19T19:44:53.437Z,10.46
2023-04-19T19:47:19.949Z,10.36
2023-04-19T19:50:20.284Z,10.31
2023-04-19T19:52:32.992Z,10.45
2023-04-19T19:54:59.794Z,10.32
2023-04-19T19:59:56.770Z,10.40
2023-04-19T20:02:24.759Z,9.96
2023-04-19T20:04:51.671Z,9.98
2023-04-19T20:07:36.951Z,10.10
2023-04-19T20:10:10.585Z,9.90
2023-04-19T20:12:37.799Z,10.03
2023-04-19T20:15:04.701Z,9.95
2023-04-19T20:17:31.115Z,9.88
2023-04-19T20:19:58.138Z,10.10
2023-04-19T20:22:24.544Z,10.01
2023-04-19T20:24:52.716Z,9.62
2023-04-19T20:27:19.502Z,9.94
2023-04-19T20:29:45.896Z,9.76
2023-04-19T20:32:12.679Z,9.83
2023-04-19T20:34:39.737Z,9.74
2023-04-19T20:37:06.778Z,9.44
2023-04-19T20:39:33.153Z,9.63
2023-04-19T20:41:59.521Z,9.42
2023-04-19T20:44:26.692Z,9.40
2023-04-19T20:46:53.104Z,9.36
2023-04-19T20:49:19.533Z,9.34
2023-04-19T20:51:46.513Z,9.14
2023-04-19T20:54:12.901Z,9.11
2023-04-19T20:56:39.298Z,9.06
2023-04-19T20:59:05.772Z,9.19
2023-04-19T21:01:33.822Z,9.10
2023-04-19T21:04:00.332Z,9.17
2023-04-19T21:06:26.967Z,8.96
2023-04-19T21:08:53.583Z,9.30
2023-04-19T21:11:19.975Z,9.22
2023-04-19T21:13:46.388Z,8.94
2023-04-19T21:16:12.899Z,8.78
2023-04-19T21:18:39.428Z,8.84
2023-04-19T21:21:05.874Z,9.04
2023-04-19T21:23:32.265Z,8.90
2023-04-19T21:25:58.659Z,9.02
2023-04-19T21:28:25.099Z,9.06
2023-04-19T21:30:53.242Z,8.92
2023-04-19T21:33:19.628Z,9.10
2023-04-19T21:35:45.978Z,8.97
2023-04-19T21:38:12.371Z,8.97
2023-04-19T21:40:38.725Z,8.91
2023-04-19T21:43:05.866Z,8.99
2023-04-19T21:45:32.229Z,9.24
2023-04-19T21:47:58.625Z,8.99
2023-04-19T21:50:25.121Z,9.02
2023-04-19T21:52:51.530Z,8.94
2023-04-19T21:55:18.820Z,9.01
2023-04-19T21:57:45.259Z,8.70
2023-04-19T22:00:12.140Z,8.74
2023-04-19T22:02:38.718Z,8.77
2023-04-19T22:05:07.218Z,8.78
2023-04-19T22:07:33.759Z,8.62
2023-04-19T22:10:02.975Z,8.70
2023-04-19T22:12:29.373Z,8.70
2023-04-19T22:14:56.024Z,8.61
2023-04-19T22:17:22.998Z,8.58
2023-04-19T22:19:49.647Z,8.56
2023-04-19T22:22:16.040Z,8.61
2023-04-19T22:24:56.272Z,8.48
2023-04-19T22:27:24.514Z,8.71
2023-04-19T22:29:50.902Z,8.51
2023-04-19T22:32:17.311Z,8.72
2023-04-19T22:34:43.714Z,8.69
2023-04-19T22:37:10.190Z,8.66
2023-04-19T22:39:36.558Z,8.68
2023-04-19T22:42:02.977Z,8.51
2023-04-19T22:44:29.464Z,8.49
2023-04-19T22:46:55.864Z,8.63
2023-04-19T22:49:22.792Z,8.60
2023-04-19T22:51:49.417Z,8.51
2023-04-19T22:54:15.928Z,8.45
2023-04-19T22:56:42.443Z,8.29
2023-04-19T22:59:08.817Z,8.68
2023-04-19T23:01:35.364Z,8.37
2023-04-19T23:04:01.838Z,8.54
2023-04-19T23:06:28.932Z,8.55
2023-04-19T23:08:56.163Z,8.63
2023-04-19T23:11:25.757Z,8.77
2023-04-19T23:13:55.417Z,8.53
2023-04-19T23:16:25.344Z,8.57
2023-04-19T23:18:52.263Z,8.64
2023-04-19T23:21:18.699Z,8.38
2023-04-19T23:23:45.335Z,8.68
2023-04-19T23:26:11.890Z,8.55
2023-04-19T23:28:38.250Z,8.59
2023-04-19T23:31:04.934Z,8.74
2023-04-19T23:33:31.340Z,8.76
2023-04-19T23:35:57.701Z,8.96
2023-04-19T23:38:24.138Z,8.79
2023-04-19T23:40:50.748Z,8.66
2023-04-19T23:43:17.168Z,8.17
2023-04-19T23:45:43.548Z,8.23
2023-04-19T23:48:09.904Z,8.29
2023-04-19T23:50:36.313Z,8.11
2023-04-19T23:53:04.246Z,8.25
2023-04-19T23:55:30.646Z,8.07
2023-04-19T23:57:57.367Z,8.16
